RJDM weather

Metabaru Air Base
Saga Prefecture, Japan

Public forecast

Using degrees Celsius for public forecast. Weather courtesy of forecast.io.

METAR (pilot weather report)

Report is more than 6 hours old.

Retrieved 2019/05/18 14:04 UTC (1 day ago):

RJDM 181404Z 06014KT 9999 -RA FEW040 21/15 Q1011 RMK 1CU040 A2985 MAX WIND 21KT

TAF (pilot weather forecast)

Closest forecast is Saga Airport, 11.9 nm (22.1 km) SSW. Retrieved 2019/05/19 12:30 UTC (5 hours ago):

TAF TAF RJFS 191107Z 1912/2018 02005KT 9000 -SHRA FEW010 SCT030 BKN040 TEMPO 1915/1920 4000 -SHRA BR BECMG 2000/2003 25009KT